Santa Fe, NM

5:32 AM MDT on September 01, 2014 (GMT -0600)
Santa Fe Municipal | Change Station
CLOSE
Current Station
Airport
Location: Santa Fe,
Elevation: 6345 ft
Nearby Weather Stations

Elev 6345 ft 35.62 °N, 106.09 °W | Updated 39 minutes ago

Clear
Clear
56 °F
Feels Like 56 °F
N
4
Wind Variable Wind from North

Today
High -- | Low -- °F
--% Chance of Precip.
Yesterday
High -- | Low -- °F
Precip. -- in
6:36 AM 7:31 PM
Waxing Crescent, 40% visible
Pressure 29.81 in
Visibility 10.0 miles
Clouds Clear
Dew Point 37 °F
Humidity 49%
Rainfall 0.00 in
Snow Depth 1 in
UV 0 out of 12
Pollen 8.90 out of 12
Air Quality Not available.
Flu Activity Not available.
METAR KSAF 011053Z AUTO 35003KT 10SM CLR 13/03 A3012 RMK AO2 SLP092 T01330028

More Conditions Fewer Conditions

Pressure 29.81 in
Visibility 10.0 miles
Clouds Clear
Dew Point 37 °F
Humidity 49%
Rainfall 0.00 in
Snow Depth 1 in
UV 0 out of 12
Pollen 8.90 out of 12
Air Quality Not available.
Flu Activity Not available.
METAR KSAF 011053Z AUTO 35003KT 10SM CLR 13/03 A3012 RMK AO2 SLP092 T01330028

More Conditions Fewer Conditions

10-Day Weather Forecast

Almanac

Astronomy

Sep. 01, 2014 Rise Set
Actual Time 6:36 AM MDT 7:31 PM MDT
Civil Twilight 6:10 AM MDT 7:57 PM MDT
Nautical Twilight 5:39 AM MDT 8:28 PM MDT
Astronomical Twilight 5:07 AM MDT 9:00 PM MDT
Moon 1:11 PM MDT 11:48 PM MDT
Length of Visible Light 13h 47m
Length of Day
12h 54m
Tomorrow will be 2m 10s shorter.
Waxing Crescent, 40% of the Moon is Illuminated
Today
Waxing Crescent
Sep 2
First Quarter
Sep 8
Full
Sep 15
Last Quarter
Sep 24
New

Today's Extremes

State Highs State Lows

Community

WunderPhotos

Upload Photos

1,749,188 photos uploaded!

Nearby

Snow Depth

Station Depth Elevation
Santa Fe 1 in 11445 ft
Quemazon 2 in 9500 ft
Wesner Springs 2 in 11120 ft
Gallegos Peak 0 in 9800 ft
Bateman 0 in 9300 ft

Earthquake Activity

City Distance Mag. Time & Date
Trinidad, Colorado 119 miles 2.7 4:20 AM MDT
2014-08-31
Minimum magnitude displayed is 2.5.

Coastal Water Temperatures

Place Temperature
No Stations Reporting

Nearby Weather Stations